sensor_id;sensor_type;location;lat;lon;timestamp;P1;durP1;ratioP1;P2;durP2;ratioP2
8909;SDS011;4490;49.072;8.804;2022-12-20T00:01:43;65.57;;;40.67;;
8909;SDS011;4490;49.072;8.804;2022-12-20T00:04:09;63.60;;;39.83;;
8909;SDS011;4490;49.072;8.804;2022-12-20T00:06:35;62.83;;;40.60;;
8909;SDS011;4490;49.072;8.804;2022-12-20T00:09:02;63.43;;;39.73;;
8909;SDS011;4490;49.072;8.804;2022-12-20T00:11:29;59.47;;;40.43;;
8909;SDS011;4490;49.072;8.804;2022-12-20T00:13:55;71.97;;;42.57;;
8909;SDS011;4490;49.072;8.804;2022-12-20T00:16:22;67.73;;;42.23;;
8909;SDS011;4490;49.072;8.804;2022-12-20T00:18:50;69.23;;;41.37;;
8909;SDS011;4490;49.072;8.804;2022-12-20T00:21:16;67.80;;;42.53;;
8909;SDS011;4490;49.072;8.804;2022-12-20T00:23:42;66.17;;;42.30;;
8909;SDS011;4490;49.072;8.804;2022-12-20T00:26:09;68.23;;;42.90;;
8909;SDS011;4490;49.072;8.804;2022-12-20T00:28:39;66.30;;;42.27;;
8909;SDS011;4490;49.072;8.804;2022-12-20T00:31:06;68.53;;;42.63;;
8909;SDS011;4490;49.072;8.804;2022-12-20T00:33:33;72.20;;;44.20;;
8909;SDS011;4490;49.072;8.804;2022-12-20T00:36:01;61.93;;;41.37;;
8909;SDS011;4490;49.072;8.804;2022-12-20T00:38:27;67.67;;;41.93;;
8909;SDS011;4490;49.072;8.804;2022-12-20T00:43:25;68.77;;;42.77;;
8909;SDS011;4490;49.072;8.804;2022-12-20T00:45:51;63.37;;;40.93;;
8909;SDS011;4490;49.072;8.804;2022-12-20T00:48:17;64.57;;;38.90;;
8909;SDS011;4490;49.072;8.804;2022-12-20T00:50:42;64.37;;;41.33;;
8909;SDS011;4490;49.072;8.804;2022-12-20T00:53:08;59.73;;;38.80;;
8909;SDS011;4490;49.072;8.804;2022-12-20T00:55:34;59.87;;;38.70;;
8909;SDS011;4490;49.072;8.804;2022-12-20T00:58:05;62.23;;;38.60;;
8909;SDS011;4490;49.072;8.804;2022-12-20T01:00:30;58.80;;;36.57;;
8909;SDS011;4490;49.072;8.804;2022-12-20T01:02:56;58.90;;;36.87;;
8909;SDS011;4490;49.072;8.804;2022-12-20T01:05:21;57.37;;;37.13;;
8909;SDS011;4490;49.072;8.804;2022-12-20T01:07:47;59.47;;;36.20;;
8909;SDS011;4490;49.072;8.804;2022-12-20T01:10:13;57.70;;;37.07;;
8909;SDS011;4490;49.072;8.804;2022-12-20T01:12:38;62.87;;;36.37;;
8909;SDS011;4490;49.072;8.804;2022-12-20T01:15:04;61.80;;;36.07;;
8909;SDS011;4490;49.072;8.804;2022-12-20T01:17:30;54.00;;;34.57;;
8909;SDS011;4490;49.072;8.804;2022-12-20T01:19:56;56.70;;;36.23;;
8909;SDS011;4490;49.072;8.804;2022-12-20T01:22:22;59.70;;;38.63;;
8909;SDS011;4490;49.072;8.804;2022-12-20T01:24:47;55.00;;;35.73;;
8909;SDS011;4490;49.072;8.804;2022-12-20T01:27:13;53.50;;;36.30;;
8909;SDS011;4490;49.072;8.804;2022-12-20T01:29:39;53.87;;;35.37;;
8909;SDS011;4490;49.072;8.804;2022-12-20T01:32:04;57.60;;;35.97;;
8909;SDS011;4490;49.072;8.804;2022-12-20T01:34:30;57.37;;;35.70;;
8909;SDS011;4490;49.072;8.804;2022-12-20T01:36:55;61.47;;;35.53;;
8909;SDS011;4490;49.072;8.804;2022-12-20T01:39:21;59.47;;;37.10;;
8909;SDS011;4490;49.072;8.804;2022-12-20T01:41:47;59.80;;;36.63;;
8909;SDS011;4490;49.072;8.804;2022-12-20T01:46:41;57.87;;;36.23;;
8909;SDS011;4490;49.072;8.804;2022-12-20T01:49:12;58.00;;;36.80;;
8909;SDS011;4490;49.072;8.804;2022-12-20T01:51:43;56.63;;;34.30;;
8909;SDS011;4490;49.072;8.804;2022-12-20T01:54:24;51.40;;;33.87;;
8909;SDS011;4490;49.072;8.804;2022-12-20T01:56:58;52.37;;;32.73;;
8909;SDS011;4490;49.072;8.804;2022-12-20T01:59:27;49.00;;;31.40;;
8909;SDS011;4490;49.072;8.804;2022-12-20T02:01:54;51.77;;;32.87;;
8909;SDS011;4490;49.072;8.804;2022-12-20T02:04:25;49.70;;;31.67;;
8909;SDS011;4490;49.072;8.804;2022-12-20T02:06:51;50.53;;;32.23;;
8909;SDS011;4490;49.072;8.804;2022-12-20T02:09:17;52.23;;;33.80;;
8909;SDS011;4490;49.072;8.804;2022-12-20T02:30:54;51.87;;;31.53;;
8909;SDS011;4490;49.072;8.804;2022-12-20T02:33:24;52.60;;;32.90;;
8909;SDS011;4490;49.072;8.804;2022-12-20T02:35:52;57.23;;;34.63;;
8909;SDS011;4490;49.072;8.804;2022-12-20T02:38:26;54.97;;;36.07;;
8909;SDS011;4490;49.072;8.804;2022-12-20T02:40:56;55.10;;;34.47;;
8909;SDS011;4490;49.072;8.804;2022-12-20T02:43:27;55.33;;;34.27;;
8909;SDS011;4490;49.072;8.804;2022-12-20T02:46:13;58.17;;;33.77;;
8909;SDS011;4490;49.072;8.804;2022-12-20T02:48:41;54.23;;;33.90;;
8909;SDS011;4490;49.072;8.804;2022-12-20T02:51:07;55.07;;;34.47;;
8909;SDS011;4490;49.072;8.804;2022-12-20T02:53:34;53.73;;;35.20;;
8909;SDS011;4490;49.072;8.804;2022-12-20T02:56:08;58.30;;;35.20;;
8909;SDS011;4490;49.072;8.804;2022-12-20T03:01:13;58.77;;;35.43;;
8909;SDS011;4490;49.072;8.804;2022-12-20T03:03:49;55.30;;;34.23;;
8909;SDS011;4490;49.072;8.804;2022-12-20T03:06:16;53.83;;;32.87;;
8909;SDS011;4490;49.072;8.804;2022-12-20T03:08:41;52.47;;;33.00;;
8909;SDS011;4490;49.072;8.804;2022-12-20T03:11:07;51.10;;;31.13;;
8909;SDS011;4490;49.072;8.804;2022-12-20T03:13:33;48.43;;;31.03;;
8909;SDS011;4490;49.072;8.804;2022-12-20T03:15:58;50.03;;;33.53;;
8909;SDS011;4490;49.072;8.804;2022-12-20T03:18:24;54.07;;;33.53;;
8909;SDS011;4490;49.072;8.804;2022-12-20T03:20:50;48.83;;;31.37;;
8909;SDS011;4490;49.072;8.804;2022-12-20T03:23:15;53.60;;;32.40;;
8909;SDS011;4490;49.072;8.804;2022-12-20T03:25:41;49.67;;;32.50;;
8909;SDS011;4490;49.072;8.804;2022-12-20T03:28:06;52.10;;;31.70;;
8909;SDS011;4490;49.072;8.804;2022-12-20T03:30:32;50.93;;;30.67;;
8909;SDS011;4490;49.072;8.804;2022-12-20T03:32:58;47.10;;;28.67;;
8909;SDS011;4490;49.072;8.804;2022-12-20T03:35:23;47.07;;;28.47;;
8909;SDS011;4490;49.072;8.804;2022-12-20T03:37:49;39.77;;;25.40;;
8909;SDS011;4490;49.072;8.804;2022-12-20T03:40:14;38.70;;;24.50;;
8909;SDS011;4490;49.072;8.804;2022-12-20T03:42:40;35.33;;;22.53;;
8909;SDS011;4490;49.072;8.804;2022-12-20T03:45:06;31.20;;;20.70;;
8909;SDS011;4490;49.072;8.804;2022-12-20T03:47:32;35.03;;;21.73;;
8909;SDS011;4490;49.072;8.804;2022-12-20T03:49:58;36.03;;;23.50;;
8909;SDS011;4490;49.072;8.804;2022-12-20T03:52:24;39.00;;;24.30;;
8909;SDS011;4490;49.072;8.804;2022-12-20T03:54:49;38.13;;;23.53;;
8909;SDS011;4490;49.072;8.804;2022-12-20T03:57:15;34.03;;;21.47;;
8909;SDS011;4490;49.072;8.804;2022-12-20T03:59:41;38.83;;;23.37;;
8909;SDS011;4490;49.072;8.804;2022-12-20T04:02:07;37.43;;;23.00;;
8909;SDS011;4490;49.072;8.804;2022-12-20T04:04:33;42.37;;;24.37;;
8909;SDS011;4490;49.072;8.804;2022-12-20T04:06:59;34.87;;;23.03;;
8909;SDS011;4490;49.072;8.804;2022-12-20T04:09:25;40.20;;;24.33;;
8909;SDS011;4490;49.072;8.804;2022-12-20T04:11:50;39.27;;;25.00;;
8909;SDS011;4490;49.072;8.804;2022-12-20T04:14:16;35.93;;;23.27;;
8909;SDS011;4490;49.072;8.804;2022-12-20T04:16:42;37.87;;;23.80;;
8909;SDS011;4490;49.072;8.804;2022-12-20T04:19:07;35.87;;;23.13;;
8909;SDS011;4490;49.072;8.804;2022-12-20T04:21:33;39.43;;;24.30;;
8909;SDS011;4490;49.072;8.804;2022-12-20T04:24:00;37.10;;;24.73;;
8909;SDS011;4490;49.072;8.804;2022-12-20T04:26:26;36.03;;;24.37;;
8909;SDS011;4490;49.072;8.804;2022-12-20T04:28:52;40.37;;;23.53;;
8909;SDS011;4490;49.072;8.804;2022-12-20T04:31:18;33.47;;;22.77;;
8909;SDS011;4490;49.072;8.804;2022-12-20T04:33:44;36.63;;;23.60;;
8909;SDS011;4490;49.072;8.804;2022-12-20T04:36:11;36.83;;;22.17;;
8909;SDS011;4490;49.072;8.804;2022-12-20T04:38:37;35.00;;;22.33;;
8909;SDS011;4490;49.072;8.804;2022-12-20T04:41:02;36.53;;;22.63;;
8909;SDS011;4490;49.072;8.804;2022-12-20T04:43:28;32.20;;;21.97;;
8909;SDS011;4490;49.072;8.804;2022-12-20T04:45:54;31.30;;;21.50;;
8909;SDS011;4490;49.072;8.804;2022-12-20T04:48:20;33.20;;;21.00;;
8909;SDS011;4490;49.072;8.804;2022-12-20T04:50:49;25.47;;;14.70;;
8909;SDS011;4490;49.072;8.804;2022-12-20T04:53:15;29.37;;;17.93;;
8909;SDS011;4490;49.072;8.804;2022-12-20T04:55:59;20.20;;;14.03;;
8909;SDS011;4490;49.072;8.804;2022-12-20T04:58:25;22.30;;;15.70;;
8909;SDS011;4490;49.072;8.804;2022-12-20T05:00:50;23.33;;;14.53;;
8909;SDS011;4490;49.072;8.804;2022-12-20T05:03:16;24.63;;;15.67;;
8909;SDS011;4490;49.072;8.804;2022-12-20T05:05:43;23.30;;;15.00;;
8909;SDS011;4490;49.072;8.804;2022-12-20T05:08:08;25.70;;;16.33;;
8909;SDS011;4490;49.072;8.804;2022-12-20T05:10:34;24.03;;;15.20;;
8909;SDS011;4490;49.072;8.804;2022-12-20T05:13:00;24.33;;;17.53;;
8909;SDS011;4490;49.072;8.804;2022-12-20T05:15:25;26.23;;;17.40;;
8909;SDS011;4490;49.072;8.804;2022-12-20T05:17:51;27.77;;;18.97;;
8909;SDS011;4490;49.072;8.804;2022-12-20T05:20:16;32.57;;;22.67;;
8909;SDS011;4490;49.072;8.804;2022-12-20T05:22:42;34.40;;;24.03;;
8909;SDS011;4490;49.072;8.804;2022-12-20T05:25:26;32.27;;;21.97;;
8909;SDS011;4490;49.072;8.804;2022-12-20T05:28:10;32.07;;;21.93;;
8909;SDS011;4490;49.072;8.804;2022-12-20T05:30:36;31.67;;;23.13;;
8909;SDS011;4490;49.072;8.804;2022-12-20T05:33:02;28.97;;;20.93;;
8909;SDS011;4490;49.072;8.804;2022-12-20T05:35:28;27.67;;;19.93;;
8909;SDS011;4490;49.072;8.804;2022-12-20T05:37:53;26.20;;;17.83;;
8909;SDS011;4490;49.072;8.804;2022-12-20T05:40:19;25.27;;;18.00;;
8909;SDS011;4490;49.072;8.804;2022-12-20T05:42:44;26.40;;;17.43;;
8909;SDS011;4490;49.072;8.804;2022-12-20T05:45:10;25.30;;;17.13;;
8909;SDS011;4490;49.072;8.804;2022-12-20T05:47:36;22.87;;;17.00;;
8909;SDS011;4490;49.072;8.804;2022-12-20T05:50:03;25.77;;;17.07;;
8909;SDS011;4490;49.072;8.804;2022-12-20T05:52:29;24.23;;;16.73;;
8909;SDS011;4490;49.072;8.804;2022-12-20T05:54:55;23.27;;;16.57;;
8909;SDS011;4490;49.072;8.804;2022-12-20T05:57:20;22.53;;;16.60;;
8909;SDS011;4490;49.072;8.804;2022-12-20T05:59:46;21.87;;;15.07;;
8909;SDS011;4490;49.072;8.804;2022-12-20T06:02:12;25.27;;;16.43;;
8909;SDS011;4490;49.072;8.804;2022-12-20T06:04:38;26.33;;;16.83;;
8909;SDS011;4490;49.072;8.804;2022-12-20T06:07:04;25.43;;;17.07;;
8909;SDS011;4490;49.072;8.804;2022-12-20T06:09:30;23.77;;;16.53;;
8909;SDS011;4490;49.072;8.804;2022-12-20T06:11:56;29.53;;;18.17;;
8909;SDS011;4490;49.072;8.804;2022-12-20T06:14:22;26.23;;;17.63;;
8909;SDS011;4490;49.072;8.804;2022-12-20T06:16:48;29.00;;;17.77;;
8909;SDS011;4490;49.072;8.804;2022-12-20T06:19:14;25.27;;;17.50;;
8909;SDS011;4490;49.072;8.804;2022-12-20T06:21:40;24.97;;;17.00;;
8909;SDS011;4490;49.072;8.804;2022-12-20T06:24:05;27.53;;;17.83;;
8909;SDS011;4490;49.072;8.804;2022-12-20T06:26:32;27.70;;;17.60;;
8909;SDS011;4490;49.072;8.804;2022-12-20T06:29:01;24.90;;;16.67;;
8909;SDS011;4490;49.072;8.804;2022-12-20T06:31:28;26.90;;;17.00;;
8909;SDS011;4490;49.072;8.804;2022-12-20T06:33:54;27.80;;;18.27;;
8909;SDS011;4490;49.072;8.804;2022-12-20T06:36:20;24.80;;;17.60;;
8909;SDS011;4490;49.072;8.804;2022-12-20T06:38:45;26.60;;;18.47;;
8909;SDS011;4490;49.072;8.804;2022-12-20T06:41:11;26.30;;;18.07;;
8909;SDS011;4490;49.072;8.804;2022-12-20T06:43:37;28.50;;;18.70;;
8909;SDS011;4490;49.072;8.804;2022-12-20T06:46:03;28.97;;;19.23;;
8909;SDS011;4490;49.072;8.804;2022-12-20T06:48:28;28.27;;;18.87;;
8909;SDS011;4490;49.072;8.804;2022-12-20T06:50:54;26.50;;;18.83;;
8909;SDS011;4490;49.072;8.804;2022-12-20T06:53:19;29.77;;;18.67;;
8909;SDS011;4490;49.072;8.804;2022-12-20T06:55:48;28.47;;;18.97;;
8909;SDS011;4490;49.072;8.804;2022-12-20T06:58:15;24.60;;;17.90;;
8909;SDS011;4490;49.072;8.804;2022-12-20T07:00:44;25.63;;;18.53;;
8909;SDS011;4490;49.072;8.804;2022-12-20T07:03:09;25.77;;;17.97;;
8909;SDS011;4490;49.072;8.804;2022-12-20T07:05:35;25.60;;;18.17;;
8909;SDS011;4490;49.072;8.804;2022-12-20T07:08:01;28.17;;;19.97;;
8909;SDS011;4490;49.072;8.804;2022-12-20T07:10:28;29.23;;;20.73;;
8909;SDS011;4490;49.072;8.804;2022-12-20T07:12:54;26.33;;;20.63;;
8909;SDS011;4490;49.072;8.804;2022-12-20T07:15:20;28.97;;;20.23;;
8909;SDS011;4490;49.072;8.804;2022-12-20T07:17:49;28.47;;;20.53;;
8909;SDS011;4490;49.072;8.804;2022-12-20T07:20:15;29.30;;;21.63;;
8909;SDS011;4490;49.072;8.804;2022-12-20T07:22:41;30.43;;;20.20;;
8909;SDS011;4490;49.072;8.804;2022-12-20T07:25:07;33.33;;;20.40;;
8909;SDS011;4490;49.072;8.804;2022-12-20T07:27:33;24.67;;;19.17;;
8909;SDS011;4490;49.072;8.804;2022-12-20T07:29:59;27.43;;;19.50;;
8909;SDS011;4490;49.072;8.804;2022-12-20T07:32:24;28.20;;;18.87;;
8909;SDS011;4490;49.072;8.804;2022-12-20T07:34:50;23.60;;;18.13;;
8909;SDS011;4490;49.072;8.804;2022-12-20T07:37:15;26.37;;;18.53;;
8909;SDS011;4490;49.072;8.804;2022-12-20T07:39:41;28.00;;;19.63;;
8909;SDS011;4490;49.072;8.804;2022-12-20T07:42:07;25.30;;;18.17;;
8909;SDS011;4490;49.072;8.804;2022-12-20T07:44:33;29.00;;;18.63;;
8909;SDS011;4490;49.072;8.804;2022-12-20T07:46:59;28.87;;;19.00;;
8909;SDS011;4490;49.072;8.804;2022-12-20T07:49:25;27.67;;;18.67;;
8909;SDS011;4490;49.072;8.804;2022-12-20T07:51:52;25.50;;;18.77;;
8909;SDS011;4490;49.072;8.804;2022-12-20T07:54:23;26.77;;;18.70;;
8909;SDS011;4490;49.072;8.804;2022-12-20T07:56:53;29.83;;;19.83;;
8909;SDS011;4490;49.072;8.804;2022-12-20T07:59:34;27.67;;;19.30;;
8909;SDS011;4490;49.072;8.804;2022-12-20T08:02:06;26.83;;;19.20;;
8909;SDS011;4490;49.072;8.804;2022-12-20T08:04:37;31.50;;;20.13;;
8909;SDS011;4490;49.072;8.804;2022-12-20T08:07:03;30.37;;;19.60;;
8909;SDS011;4490;49.072;8.804;2022-12-20T08:09:33;27.90;;;19.30;;
8909;SDS011;4490;49.072;8.804;2022-12-20T08:12:02;28.27;;;19.20;;
8909;SDS011;4490;49.072;8.804;2022-12-20T08:14:28;25.73;;;18.57;;
8909;SDS011;4490;49.072;8.804;2022-12-20T08:16:54;26.73;;;18.53;;
8909;SDS011;4490;49.072;8.804;2022-12-20T08:19:19;30.43;;;18.23;;
8909;SDS011;4490;49.072;8.804;2022-12-20T08:21:45;25.47;;;17.83;;
8909;SDS011;4490;49.072;8.804;2022-12-20T08:24:11;22.77;;;17.10;;
8909;SDS011;4490;49.072;8.804;2022-12-20T08:26:40;26.87;;;16.73;;
8909;SDS011;4490;49.072;8.804;2022-12-20T08:29:06;23.27;;;17.63;;
8909;SDS011;4490;49.072;8.804;2022-12-20T08:31:32;24.67;;;17.90;;
8909;SDS011;4490;49.072;8.804;2022-12-20T08:34:02;26.37;;;17.33;;
8909;SDS011;4490;49.072;8.804;2022-12-20T08:36:28;24.93;;;16.87;;
8909;SDS011;4490;49.072;8.804;2022-12-20T08:38:53;23.20;;;16.70;;
8909;SDS011;4490;49.072;8.804;2022-12-20T08:41:19;28.73;;;17.37;;
8909;SDS011;4490;49.072;8.804;2022-12-20T08:43:44;23.90;;;16.30;;
8909;SDS011;4490;49.072;8.804;2022-12-20T08:46:10;24.73;;;16.67;;
8909;SDS011;4490;49.072;8.804;2022-12-20T08:48:36;27.37;;;17.50;;
8909;SDS011;4490;49.072;8.804;2022-12-20T08:51:03;25.93;;;17.97;;
8909;SDS011;4490;49.072;8.804;2022-12-20T08:53:31;23.60;;;16.67;;
8909;SDS011;4490;49.072;8.804;2022-12-20T08:56:06;28.57;;;17.43;;
8909;SDS011;4490;49.072;8.804;2022-12-20T08:58:34;24.87;;;17.90;;
8909;SDS011;4490;49.072;8.804;2022-12-20T09:01:00;28.57;;;18.77;;
8909;SDS011;4490;49.072;8.804;2022-12-20T09:03:28;28.27;;;19.57;;
8909;SDS011;4490;49.072;8.804;2022-12-20T09:05:55;27.83;;;20.87;;
8909;SDS011;4490;49.072;8.804;2022-12-20T09:08:21;28.27;;;20.07;;
8909;SDS011;4490;49.072;8.804;2022-12-20T09:10:47;27.80;;;19.33;;
8909;SDS011;4490;49.072;8.804;2022-12-20T09:13:13;25.87;;;19.53;;
8909;SDS011;4490;49.072;8.804;2022-12-20T09:15:38;27.60;;;20.03;;
8909;SDS011;4490;49.072;8.804;2022-12-20T09:18:04;26.30;;;19.30;;
8909;SDS011;4490;49.072;8.804;2022-12-20T09:20:30;28.70;;;19.63;;
8909;SDS011;4490;49.072;8.804;2022-12-20T09:22:57;28.03;;;19.83;;
8909;SDS011;4490;49.072;8.804;2022-12-20T09:25:23;25.83;;;18.67;;
8909;SDS011;4490;49.072;8.804;2022-12-20T09:27:50;27.60;;;19.67;;
8909;SDS011;4490;49.072;8.804;2022-12-20T09:30:15;27.63;;;19.33;;
8909;SDS011;4490;49.072;8.804;2022-12-20T09:32:41;29.23;;;20.27;;
8909;SDS011;4490;49.072;8.804;2022-12-20T09:35:07;22.30;;;17.73;;
8909;SDS011;4490;49.072;8.804;2022-12-20T09:37:32;21.00;;;16.60;;
8909;SDS011;4490;49.072;8.804;2022-12-20T09:39:58;17.23;;;12.10;;
8909;SDS011;4490;49.072;8.804;2022-12-20T09:42:25;15.93;;;10.90;;
8909;SDS011;4490;49.072;8.804;2022-12-20T09:44:52;16.87;;;11.60;;
8909;SDS011;4490;49.072;8.804;2022-12-20T09:47:24;14.90;;;10.13;;
8909;SDS011;4490;49.072;8.804;2022-12-20T09:49:52;15.67;;;10.73;;
8909;SDS011;4490;49.072;8.804;2022-12-20T09:55:10;12.97;;;9.30;;
8909;SDS011;4490;49.072;8.804;2022-12-20T10:00:46;11.70;;;9.03;;
8909;SDS011;4490;49.072;8.804;2022-12-20T10:03:20;12.40;;;8.70;;
8909;SDS011;4490;49.072;8.804;2022-12-20T10:05:50;13.20;;;8.77;;
8909;SDS011;4490;49.072;8.804;2022-12-20T10:17:45;11.20;;;7.83;;
8909;SDS011;4490;49.072;8.804;2022-12-20T10:22:55;10.67;;;7.63;;
8909;SDS011;4490;49.072;8.804;2022-12-20T10:25:39;9.73;;;7.20;;
8909;SDS011;4490;49.072;8.804;2022-12-20T10:28:15;11.50;;;8.07;;
8909;SDS011;4490;49.072;8.804;2022-12-20T10:30:41;12.67;;;8.83;;
8909;SDS011;4490;49.072;8.804;2022-12-20T10:33:13;13.93;;;9.97;;
8909;SDS011;4490;49.072;8.804;2022-12-20T10:35:44;16.67;;;12.20;;
8909;SDS011;4490;49.072;8.804;2022-12-20T10:38:11;16.17;;;11.50;;
8909;SDS011;4490;49.072;8.804;2022-12-20T10:40:45;17.70;;;11.37;;
8909;SDS011;4490;49.072;8.804;2022-12-20T10:43:25;16.97;;;12.47;;
8909;SDS011;4490;49.072;8.804;2022-12-20T10:48:44;18.23;;;12.57;;
8909;SDS011;4490;49.072;8.804;2022-12-20T10:51:21;17.53;;;12.43;;
8909;SDS011;4490;49.072;8.804;2022-12-20T10:53:51;18.43;;;12.87;;
8909;SDS011;4490;49.072;8.804;2022-12-20T10:56:28;17.87;;;12.73;;
8909;SDS011;4490;49.072;8.804;2022-12-20T10:59:04;17.03;;;13.47;;
8909;SDS011;4490;49.072;8.804;2022-12-20T11:01:45;17.70;;;13.63;;
8909;SDS011;4490;49.072;8.804;2022-12-20T11:04:31;16.93;;;12.97;;
8909;SDS011;4490;49.072;8.804;2022-12-20T11:07:00;13.73;;;11.30;;
8909;SDS011;4490;49.072;8.804;2022-12-20T11:14:22;8.00;;;6.53;;
8909;SDS011;4490;49.072;8.804;2022-12-20T11:16:48;7.80;;;6.13;;
8909;SDS011;4490;49.072;8.804;2022-12-20T11:21:59;8.27;;;6.23;;
8909;SDS011;4490;49.072;8.804;2022-12-20T11:25:04;7.77;;;6.40;;
8909;SDS011;4490;49.072;8.804;2022-12-20T11:30:42;9.73;;;7.10;;
8909;SDS011;4490;49.072;8.804;2022-12-20T11:38:34;7.87;;;6.00;;
8909;SDS011;4490;49.072;8.804;2022-12-20T11:44:04;8.20;;;5.53;;
8909;SDS011;4490;49.072;8.804;2022-12-20T11:58:12;9.33;;;6.80;;
8909;SDS011;4490;49.072;8.804;2022-12-20T12:00:30;9.13;;;6.27;;
8909;SDS011;4490;49.072;8.804;2022-12-20T12:03:20;10.37;;;7.10;;
8909;SDS011;4490;49.072;8.804;2022-12-20T12:05:52;9.20;;;7.10;;
8909;SDS011;4490;49.072;8.804;2022-12-20T12:08:30;10.40;;;7.40;;
8909;SDS011;4490;49.072;8.804;2022-12-20T12:11:15;10.03;;;8.57;;
8909;SDS011;4490;49.072;8.804;2022-12-20T12:13:45;11.20;;;8.80;;
8909;SDS011;4490;49.072;8.804;2022-12-20T12:18:44;11.83;;;8.70;;
8909;SDS011;4490;49.072;8.804;2022-12-20T12:21:27;11.70;;;9.03;;
8909;SDS011;4490;49.072;8.804;2022-12-20T12:26:36;11.93;;;8.50;;
8909;SDS011;4490;49.072;8.804;2022-12-20T12:31:40;7.73;;;6.33;;
8909;SDS011;4490;49.072;8.804;2022-12-20T12:45:14;7.57;;;6.03;;
8909;SDS011;4490;49.072;8.804;2022-12-20T12:50:28;6.93;;;5.97;;
8909;SDS011;4490;49.072;8.804;2022-12-20T12:52:58;8.87;;;6.70;;
8909;SDS011;4490;49.072;8.804;2022-12-20T13:11:44;8.93;;;6.63;;
8909;SDS011;4490;49.072;8.804;2022-12-20T13:16:45;9.13;;;6.90;;
8909;SDS011;4490;49.072;8.804;2022-12-20T13:19:33;8.30;;;6.30;;
8909;SDS011;4490;49.072;8.804;2022-12-20T13:32:52;8.53;;;6.80;;
8909;SDS011;4490;49.072;8.804;2022-12-20T13:45:53;7.97;;;6.30;;
8909;SDS011;4490;49.072;8.804;2022-12-20T13:48:30;7.80;;;6.07;;
8909;SDS011;4490;49.072;8.804;2022-12-20T13:51:22;8.63;;;6.23;;
8909;SDS011;4490;49.072;8.804;2022-12-20T13:58:50;11.97;;;7.40;;
8909;SDS011;4490;49.072;8.804;2022-12-20T14:01:17;10.27;;;8.23;;
8909;SDS011;4490;49.072;8.804;2022-12-20T14:03:44;9.07;;;6.97;;
8909;SDS011;4490;49.072;8.804;2022-12-20T14:06:12;10.67;;;7.77;;
8909;SDS011;4490;49.072;8.804;2022-12-20T14:08:40;10.23;;;6.77;;
8909;SDS011;4490;49.072;8.804;2022-12-20T14:11:18;8.67;;;7.17;;
8909;SDS011;4490;49.072;8.804;2022-12-20T14:13:50;10.17;;;7.03;;
8909;SDS011;4490;49.072;8.804;2022-12-20T14:16:18;8.97;;;6.83;;
8909;SDS011;4490;49.072;8.804;2022-12-20T14:18:48;10.73;;;7.10;;
8909;SDS011;4490;49.072;8.804;2022-12-20T14:21:16;8.37;;;6.83;;
8909;SDS011;4490;49.072;8.804;2022-12-20T14:23:43;10.23;;;6.37;;
8909;SDS011;4490;49.072;8.804;2022-12-20T14:26:16;9.27;;;6.17;;
8909;SDS011;4490;49.072;8.804;2022-12-20T14:28:46;10.17;;;7.00;;
8909;SDS011;4490;49.072;8.804;2022-12-20T14:36:26;11.80;;;7.97;;
8909;SDS011;4490;49.072;8.804;2022-12-20T14:38:51;12.00;;;7.07;;
8909;SDS011;4490;49.072;8.804;2022-12-20T14:46:31;8.90;;;5.77;;
8909;SDS011;4490;49.072;8.804;2022-12-20T14:51:36;11.10;;;6.23;;
8909;SDS011;4490;49.072;8.804;2022-12-20T14:54:03;8.40;;;5.47;;
8909;SDS011;4490;49.072;8.804;2022-12-20T14:56:32;8.67;;;6.07;;
8909;SDS011;4490;49.072;8.804;2022-12-20T14:59:16;9.13;;;5.10;;
8909;SDS011;4490;49.072;8.804;2022-12-20T15:01:48;7.73;;;5.50;;
8909;SDS011;4490;49.072;8.804;2022-12-20T15:04:22;6.73;;;5.47;;
8909;SDS011;4490;49.072;8.804;2022-12-20T15:06:54;9.13;;;6.30;;
8909;SDS011;4490;49.072;8.804;2022-12-20T15:09:20;7.77;;;5.87;;
8909;SDS011;4490;49.072;8.804;2022-12-20T15:11:46;9.73;;;6.60;;
8909;SDS011;4490;49.072;8.804;2022-12-20T15:16:51;8.80;;;6.40;;
8909;SDS011;4490;49.072;8.804;2022-12-20T15:19:17;8.73;;;5.83;;
8909;SDS011;4490;49.072;8.804;2022-12-20T15:21:43;10.07;;;6.20;;
8909;SDS011;4490;49.072;8.804;2022-12-20T15:24:13;10.63;;;6.30;;
8909;SDS011;4490;49.072;8.804;2022-12-20T15:26:42;7.53;;;6.03;;
8909;SDS011;4490;49.072;8.804;2022-12-20T15:29:12;9.63;;;6.47;;
8909;SDS011;4490;49.072;8.804;2022-12-20T15:31:41;13.43;;;6.43;;
8909;SDS011;4490;49.072;8.804;2022-12-20T15:34:14;9.27;;;6.30;;
8909;SDS011;4490;49.072;8.804;2022-12-20T15:36:49;9.13;;;6.30;;
8909;SDS011;4490;49.072;8.804;2022-12-20T15:39:14;8.30;;;7.13;;
8909;SDS011;4490;49.072;8.804;2022-12-20T15:41:40;11.70;;;7.70;;
8909;SDS011;4490;49.072;8.804;2022-12-20T15:44:11;10.97;;;8.33;;
8909;SDS011;4490;49.072;8.804;2022-12-20T15:46:40;11.17;;;8.77;;
8909;SDS011;4490;49.072;8.804;2022-12-20T15:49:07;10.23;;;8.47;;
8909;SDS011;4490;49.072;8.804;2022-12-20T15:51:40;10.83;;;9.43;;
8909;SDS011;4490;49.072;8.804;2022-12-20T15:54:15;11.17;;;9.70;;
8909;SDS011;4490;49.072;8.804;2022-12-20T15:56:44;11.73;;;9.57;;
8909;SDS011;4490;49.072;8.804;2022-12-20T15:59:09;11.43;;;7.77;;
8909;SDS011;4490;49.072;8.804;2022-12-20T16:01:36;7.63;;;6.40;;
8909;SDS011;4490;49.072;8.804;2022-12-20T16:04:03;8.97;;;7.20;;
8909;SDS011;4490;49.072;8.804;2022-12-20T16:06:30;11.60;;;6.83;;
8909;SDS011;4490;49.072;8.804;2022-12-20T16:08:56;10.07;;;7.07;;
8909;SDS011;4490;49.072;8.804;2022-12-20T16:11:24;10.17;;;7.23;;
8909;SDS011;4490;49.072;8.804;2022-12-20T16:13:51;10.53;;;7.07;;
8909;SDS011;4490;49.072;8.804;2022-12-20T16:16:25;9.00;;;6.70;;
8909;SDS011;4490;49.072;8.804;2022-12-20T16:18:55;10.90;;;7.30;;
8909;SDS011;4490;49.072;8.804;2022-12-20T16:21:26;13.13;;;8.03;;
8909;SDS011;4490;49.072;8.804;2022-12-20T16:23:55;8.07;;;6.57;;
8909;SDS011;4490;49.072;8.804;2022-12-20T16:26:21;9.47;;;6.73;;
8909;SDS011;4490;49.072;8.804;2022-12-20T16:28:48;10.93;;;7.67;;
8909;SDS011;4490;49.072;8.804;2022-12-20T16:31:28;10.07;;;8.00;;
8909;SDS011;4490;49.072;8.804;2022-12-20T16:33:56;11.17;;;8.33;;
8909;SDS011;4490;49.072;8.804;2022-12-20T16:36:22;13.60;;;9.23;;
8909;SDS011;4490;49.072;8.804;2022-12-20T16:38:49;13.73;;;9.57;;
8909;SDS011;4490;49.072;8.804;2022-12-20T16:41:19;14.20;;;10.10;;
8909;SDS011;4490;49.072;8.804;2022-12-20T16:43:46;19.83;;;12.37;;
8909;SDS011;4490;49.072;8.804;2022-12-20T16:46:17;13.90;;;10.60;;
8909;SDS011;4490;49.072;8.804;2022-12-20T16:48:44;13.43;;;10.73;;
8909;SDS011;4490;49.072;8.804;2022-12-20T16:51:53;16.37;;;10.63;;
8909;SDS011;4490;49.072;8.804;2022-12-20T16:54:06;13.43;;;10.30;;
8909;SDS011;4490;49.072;8.804;2022-12-20T16:56:39;13.20;;;9.60;;
8909;SDS011;4490;49.072;8.804;2022-12-20T16:59:05;12.30;;;9.90;;
8909;SDS011;4490;49.072;8.804;2022-12-20T17:01:33;13.57;;;10.23;;
8909;SDS011;4490;49.072;8.804;2022-12-20T17:04:00;15.37;;;10.80;;
8909;SDS011;4490;49.072;8.804;2022-12-20T17:06:27;13.13;;;9.70;;
8909;SDS011;4490;49.072;8.804;2022-12-20T17:08:53;13.03;;;9.53;;
8909;SDS011;4490;49.072;8.804;2022-12-20T17:11:19;13.37;;;10.17;;
8909;SDS011;4490;49.072;8.804;2022-12-20T17:13:47;12.33;;;10.43;;
8909;SDS011;4490;49.072;8.804;2022-12-20T17:16:15;11.97;;;9.60;;
8909;SDS011;4490;49.072;8.804;2022-12-20T17:18:42;13.40;;;10.50;;
8909;SDS011;4490;49.072;8.804;2022-12-20T17:21:19;13.70;;;10.20;;
8909;SDS011;4490;49.072;8.804;2022-12-20T17:23:50;15.63;;;10.27;;
8909;SDS011;4490;49.072;8.804;2022-12-20T17:26:17;13.33;;;9.10;;
8909;SDS011;4490;49.072;8.804;2022-12-20T17:28:48;15.70;;;11.27;;
8909;SDS011;4490;49.072;8.804;2022-12-20T17:31:34;15.63;;;11.13;;
8909;SDS011;4490;49.072;8.804;2022-12-20T17:34:06;16.33;;;10.80;;
8909;SDS011;4490;49.072;8.804;2022-12-20T17:36:36;12.57;;;9.20;;
8909;SDS011;4490;49.072;8.804;2022-12-20T17:39:02;15.07;;;10.20;;
8909;SDS011;4490;49.072;8.804;2022-12-20T17:41:28;11.93;;;8.87;;